Time;durP1;ratioP1;P1;durP2;ratioP2;P2;SDS_P1;SDS_P2;PMS_P1;PMS_P2;Temp;Humidity;BMP_temperature;BMP_pressure;BME280_temperature;BME280_humidity;BME280_pressure;Samples;Min_cycle;Max_cycle;Signal;HPM_P1;HPM_P2
2023/04/19 00:01:50;;;;;;;1.50;1.10;;;11.90;98.20;;;;;;5021932;28;20890;-76
2023/04/19 00:04:17;;;;;;;1.50;1.10;;;11.90;98.20;;;;;;5031449;28;20479;-75
2023/04/19 00:06:44;;;;;;;1.50;1.10;;;11.90;98.20;;;;;;5018713;28;20533;-76
2023/04/19 00:09:13;;;;;;;1.50;1.10;;;11.90;98.20;;;;;;5024760;28;20459;-78
2023/04/19 00:11:39;;;;;;;1.60;1.40;;;11.90;98.20;;;;;;5021153;28;20490;-77
2023/04/19 00:14:06;;;;;;;1.50;1.20;;;11.90;98.20;;;;;;5035948;22;20508;-76
2023/04/19 00:16:33;;;;;;;1.50;1.00;;;11.90;98.20;;;;;;4974823;28;20489;-77
2023/04/19 00:19:00;;;;;;;1.50;1.10;;;11.80;98.20;;;;;;4978518;28;20493;-78
2023/04/19 00:21:28;;;;;;;1.50;1.10;;;11.80;98.20;;;;;;4962563;28;20477;-78
2023/04/19 00:23:55;;;;;;;1.50;1.10;;;11.80;98.20;;;;;;4998546;28;20497;-78
2023/04/19 00:26:23;;;;;;;1.47;1.00;;;11.80;98.20;;;;;;4992014;28;20516;-79
2023/04/19 00:28:50;;;;;;;1.50;1.10;;;11.80;98.20;;;;;;4987340;28;20462;-77
2023/04/19 00:31:17;;;;;;;1.50;1.10;;;11.80;98.20;;;;;;4978350;28;20481;-78
2023/04/19 00:33:44;;;;;;;2.53;2.33;;;11.80;98.20;;;;;;4982397;28;20466;-80
2023/04/19 00:36:10;;;;;;;1.40;1.00;;;11.80;98.20;;;;;;4972614;28;20966;-77
2023/04/19 00:38:37;;;;;;;1.60;1.20;;;11.80;98.20;;;;;;4998950;28;20461;-77
2023/04/19 00:41:04;;;;;;;1.50;1.20;;;11.80;98.20;;;;;;4976307;28;20465;-80
2023/04/19 00:43:33;;;;;;;1.50;1.10;;;11.80;98.20;;;;;;5029290;28;20460;-79
2023/04/19 00:46:00;;;;;;;1.50;1.03;;;11.80;98.20;;;;;;4993104;28;20473;-77
2023/04/19 00:48:27;;;;;;;1.50;1.10;;;11.80;98.20;;;;;;5002972;28;20471;-77
2023/04/19 00:50:54;;;;;;;1.47;1.00;;;11.80;98.20;;;;;;4973377;28;20469;-79
2023/04/19 00:53:21;;;;;;;1.50;1.10;;;11.80;98.20;;;;;;4977155;28;20461;-77
2023/04/19 00:55:49;;;;;;;1.43;1.00;;;11.80;98.20;;;;;;4970452;28;20516;-77
2023/04/19 00:58:20;;;;;;;1.50;1.23;;;11.80;98.20;;;;;;4995036;28;20551;-77
2023/04/19 01:00:48;;;;;;;1.50;1.10;;;11.80;98.20;;;;;;4971867;28;20482;-76
2023/04/19 01:03:15;;;;;;;1.50;1.17;;;11.80;98.20;;;;;;4993630;28;20466;-77
2023/04/19 01:05:42;;;;;;;1.50;1.10;;;11.80;98.20;;;;;;4977482;28;20485;-77
2023/04/19 01:08:09;;;;;;;1.50;1.10;;;11.80;98.20;;;;;;4968170;28;20490;-77
2023/04/19 01:10:36;;;;;;;1.50;1.10;;;11.80;98.20;;;;;;4976091;28;20822;-80
2023/04/19 01:13:02;;;;;;;1.50;1.00;;;11.80;98.20;;;;;;5041331;28;20475;-78
2023/04/19 01:15:30;;;;;;;1.50;1.20;;;11.80;98.20;;;;;;5016782;28;20493;-76
2023/04/19 01:18:00;;;;;;;1.43;1.10;;;11.80;98.20;;;;;;4981947;28;21159;-76
2023/04/19 01:20:27;;;;;;;1.50;1.10;;;11.80;98.20;;;;;;5038705;28;20490;-76
2023/04/19 01:22:55;;;;;;;1.47;1.10;;;11.80;98.20;;;;;;4970862;28;21012;-75
2023/04/19 01:25:22;;;;;;;1.50;1.10;;;11.80;98.20;;;;;;4959286;28;20477;-75
2023/04/19 01:27:49;;;;;;;1.50;1.00;;;11.80;98.20;;;;;;4955310;28;20486;-75
2023/04/19 01:30:16;;;;;;;1.43;1.10;;;11.80;98.20;;;;;;4955266;28;20527;-76
2023/04/19 01:32:43;;;;;;;1.50;1.00;;;11.80;98.20;;;;;;4957726;28;20492;-76
2023/04/19 01:35:11;;;;;;;1.43;1.00;;;11.80;98.20;;;;;;4958325;28;20478;-75
2023/04/19 01:37:37;;;;;;;1.50;1.20;;;11.80;98.20;;;;;;4978309;28;20594;-76
2023/04/19 01:40:07;;;;;;;1.50;1.10;;;11.80;98.20;;;;;;4957802;28;20494;-76
2023/04/19 01:42:34;;;;;;;1.50;1.10;;;11.80;98.20;;;;;;4975483;28;20502;-76
2023/04/19 01:45:01;;;;;;;1.50;1.20;;;11.80;98.20;;;;;;5004375;28;20488;-76
2023/04/19 01:47:28;;;;;;;1.47;1.07;;;11.80;98.20;;;;;;4970660;28;20485;-76
2023/04/19 01:49:55;;;;;;;1.50;1.10;;;11.80;98.20;;;;;;4963479;28;20458;-76
2023/04/19 01:52:22;;;;;;;1.50;1.30;;;11.80;98.20;;;;;;4967808;28;20486;-76
2023/04/19 01:54:49;;;;;;;1.50;1.10;;;11.80;98.20;;;;;;4968677;28;20482;-76
2023/04/19 01:57:17;;;;;;;1.43;1.00;;;11.80;98.20;;;;;;4986362;28;20476;-76
2023/04/19 01:59:45;;;;;;;1.50;1.10;;;11.80;98.20;;;;;;4984466;28;20495;-76
2023/04/19 02:02:11;;;;;;;1.50;1.17;;;11.80;98.20;;;;;;4968614;28;20484;-76
2023/04/19 02:04:39;;;;;;;1.47;1.10;;;11.80;98.20;;;;;;4961080;28;20531;-76
2023/04/19 02:07:06;;;;;;;1.50;1.10;;;11.70;98.20;;;;;;4961358;28;20493;-76
2023/04/19 02:09:36;;;;;;;1.50;1.10;;;11.70;98.20;;;;;;4967691;28;20486;-76
2023/04/19 02:12:03;;;;;;;1.50;1.10;;;11.70;98.20;;;;;;4981759;28;20609;-76
2023/04/19 02:14:34;;;;;;;1.50;1.00;;;11.70;98.20;;;;;;5011144;28;20492;-76
2023/04/19 02:17:01;;;;;;;1.43;1.00;;;11.60;98.20;;;;;;4940238;28;20510;-75
2023/04/19 02:19:28;;;;;;;1.50;1.10;;;11.60;98.20;;;;;;4951945;28;20487;-76
2023/04/19 02:21:56;;;;;;;1.50;1.10;;;11.60;98.20;;;;;;4942193;28;20486;-76
2023/04/19 02:24:24;;;;;;;1.47;1.00;;;11.60;98.20;;;;;;4945904;28;20487;-76
2023/04/19 02:26:51;;;;;;;1.50;1.10;;;11.60;98.20;;;;;;4936875;28;20479;-75
2023/04/19 02:29:18;;;;;;;1.43;1.10;;;11.60;98.20;;;;;;4946707;28;20467;-76
2023/04/19 02:31:46;;;;;;;1.50;1.10;;;11.60;98.20;;;;;;4944786;28;20478;-76
2023/04/19 02:34:13;;;;;;;1.50;1.10;;;11.60;98.20;;;;;;4949785;28;20478;-78
2023/04/19 02:36:40;;;;;;;1.50;1.00;;;11.60;98.20;;;;;;4950037;28;20518;-77
2023/04/19 02:39:07;;;;;;;1.50;1.10;;;11.60;98.20;;;;;;4964836;28;20462;-77
2023/04/19 02:41:34;;;;;;;1.47;1.00;;;11.60;98.20;;;;;;4964100;28;20486;-76
2023/04/19 02:44:01;;;;;;;1.50;1.10;;;11.60;98.20;;;;;;5032006;28;20481;-78
2023/04/19 02:46:28;;;;;;;1.50;1.10;;;11.60;98.20;;;;;;4943610;28;20491;-75
2023/04/19 02:48:56;;;;;;;1.47;1.10;;;11.60;98.20;;;;;;4952356;28;20474;-77
2023/04/19 02:51:23;;;;;;;2.13;1.63;;;11.60;98.20;;;;;;4945166;28;20467;-75
2023/04/19 02:53:49;;;;;;;1.47;1.10;;;11.60;98.20;;;;;;4958163;28;20470;-75
2023/04/19 02:56:16;;;;;;;2.37;1.80;;;11.60;98.20;;;;;;5015461;28;20816;-74
2023/04/19 02:58:43;;;;;;;1.50;1.00;;;11.60;98.20;;;;;;5086367;28;20839;-74
2023/04/19 03:01:10;;;;;;;1.50;1.10;;;11.60;98.20;;;;;;5078381;28;20929;-74
2023/04/19 03:03:37;;;;;;;1.50;1.20;;;11.60;98.20;;;;;;5079899;28;20461;-74
2023/04/19 03:06:05;;;;;;;1.50;1.20;;;11.60;98.20;;;;;;5075712;28;20461;-74
2023/04/19 03:08:32;;;;;;;1.50;1.10;;;11.60;98.20;;;;;;5085139;28;20957;-75
2023/04/19 03:10:59;;;;;;;1.47;1.00;;;11.60;98.20;;;;;;5078249;28;21272;-74
2023/04/19 03:13:26;;;;;;;1.53;1.30;;;11.60;98.20;;;;;;5063518;28;20840;-75
2023/04/19 03:15:52;;;;;;;1.50;1.10;;;11.60;98.20;;;;;;5076142;28;20571;-75
2023/04/19 03:18:19;;;;;;;1.50;1.10;;;11.60;98.20;;;;;;5083144;28;20467;-75
2023/04/19 03:20:46;;;;;;;1.50;1.37;;;11.50;98.20;;;;;;5087676;28;20484;-74
2023/04/19 03:23:15;;;;;;;1.50;1.20;;;11.50;98.20;;;;;;5063952;28;20793;-74
2023/04/19 03:25:42;;;;;;;1.50;1.10;;;11.50;98.20;;;;;;5083849;28;20480;-75
2023/04/19 03:28:08;;;;;;;2.00;1.77;;;11.50;98.20;;;;;;5064870;28;20889;-74
2023/04/19 03:30:35;;;;;;;1.50;1.10;;;11.50;98.20;;;;;;5079817;28;20808;-74
2023/04/19 03:33:02;;;;;;;1.50;1.30;;;11.50;98.20;;;;;;5091919;28;20472;-75
2023/04/19 03:35:31;;;;;;;1.50;1.30;;;11.50;98.20;;;;;;5094250;28;20962;-75
2023/04/19 03:37:57;;;;;;;1.47;1.10;;;11.50;98.20;;;;;;5073971;28;20542;-75
2023/04/19 03:40:25;;;;;;;1.50;1.10;;;11.50;98.20;;;;;;5088170;28;20612;-74
2023/04/19 03:42:52;;;;;;;1.50;1.10;;;11.50;98.20;;;;;;5077181;28;20480;-74
2023/04/19 03:45:19;;;;;;;1.90;1.70;;;11.50;98.20;;;;;;5091026;28;20469;-74
2023/04/19 03:47:46;;;;;;;1.50;1.30;;;11.50;98.20;;;;;;5083640;28;21084;-74
2023/04/19 03:50:13;;;;;;;1.50;1.13;;;11.50;98.20;;;;;;5089044;28;20458;-75
2023/04/19 03:52:39;;;;;;;1.50;1.10;;;11.50;98.20;;;;;;5072230;28;20568;-75
2023/04/19 03:55:07;;;;;;;1.50;1.30;;;11.50;98.20;;;;;;5092703;28;20880;-75
2023/04/19 03:57:35;;;;;;;1.60;1.43;;;11.40;98.20;;;;;;5080233;28;20487;-76
2023/04/19 04:00:05;;;;;;;1.50;1.10;;;11.40;98.20;;;;;;5090305;28;20584;-75
2023/04/19 04:02:32;;;;;;;2.00;1.83;;;11.40;98.20;;;;;;5085740;28;21050;-76
2023/04/19 04:04:59;;;;;;;1.50;1.03;;;11.40;98.20;;;;;;5094737;28;20484;-75
2023/04/19 04:07:26;;;;;;;1.50;1.10;;;11.40;98.20;;;;;;5101172;27;20475;-75
2023/04/19 04:09:55;;;;;;;1.50;1.10;;;11.40;98.20;;;;;;5092841;27;20464;-74
2023/04/19 04:12:22;;;;;;;1.50;1.10;;;11.40;98.20;;;;;;5070159;28;20480;-75
2023/04/19 04:14:50;;;;;;;1.50;1.03;;;11.40;98.20;;;;;;5087753;28;20563;-75
2023/04/19 04:17:17;;;;;;;1.50;1.10;;;11.50;98.20;;;;;;5077442;28;20485;-74
2023/04/19 04:19:44;;;;;;;1.50;1.10;;;11.40;98.20;;;;;;5088339;28;20470;-74
2023/04/19 04:22:10;;;;;;;2.33;2.13;;;11.40;98.20;;;;;;5073198;28;20483;-74
2023/04/19 04:24:40;;;;;;;1.50;1.10;;;11.40;98.20;;;;;;5086717;28;20491;-76
2023/04/19 04:27:08;;;;;;;1.50;1.10;;;11.40;98.20;;;;;;5096832;27;20462;-74
2023/04/19 04:29:36;;;;;;;1.47;1.10;;;11.40;98.20;;;;;;5100928;27;20452;-75
2023/04/19 04:32:04;;;;;;;1.50;1.20;;;11.50;98.20;;;;;;5081167;28;20482;-74
2023/04/19 04:34:31;;;;;;;1.47;1.10;;;11.40;98.20;;;;;;5086869;28;20876;-77
2023/04/19 04:36:58;;;;;;;1.50;1.10;;;11.40;98.20;;;;;;5075141;28;20476;-75
2023/04/19 04:39:25;;;;;;;1.50;1.10;;;11.40;98.20;;;;;;5086317;28;20456;-74
2023/04/19 04:41:52;;;;;;;1.50;1.10;;;11.40;98.20;;;;;;5073186;28;20481;-76
2023/04/19 04:44:21;;;;;;;1.50;1.10;;;11.40;98.20;;;;;;5085536;28;20587;-76
2023/04/19 04:46:48;;;;;;;1.50;1.20;;;11.50;98.20;;;;;;5073514;28;20665;-75
2023/04/19 04:49:16;;;;;;;1.50;1.10;;;11.50;98.20;;;;;;5091556;28;20959;-74
2023/04/19 04:51:43;;;;;;;1.50;1.20;;;11.50;98.20;;;;;;5077377;28;20476;-75
2023/04/19 04:54:10;;;;;;;1.50;1.10;;;11.50;98.20;;;;;;5088887;28;20477;-75
2023/04/19 04:56:37;;;;;;;1.50;1.20;;;11.50;98.20;;;;;;5091937;27;20478;-75
2023/04/19 04:59:03;;;;;;;1.50;1.20;;;11.50;98.20;;;;;;5106107;27;20552;-74
2023/04/19 05:01:30;;;;;;;1.50;1.10;;;11.40;98.20;;;;;;5084199;28;20920;-75
2023/04/19 05:03:57;;;;;;;1.50;1.03;;;11.50;98.20;;;;;;5093343;27;20519;-75
2023/04/19 05:06:26;;;;;;;1.50;1.10;;;11.40;98.20;;;;;;5075148;28;20861;-76
2023/04/19 05:08:53;;;;;;;1.50;1.10;;;11.40;98.20;;;;;;5083690;28;20461;-76
2023/04/19 05:11:20;;;;;;;1.43;1.10;;;11.40;98.20;;;;;;5077243;28;20465;-76
2023/04/19 05:13:47;;;;;;;1.50;1.37;;;11.40;98.20;;;;;;5082471;28;20452;-74
2023/04/19 05:16:14;;;;;;;1.50;1.07;;;11.40;98.20;;;;;;5077448;28;20632;-74
2023/04/19 05:18:41;;;;;;;1.50;1.10;;;11.40;98.20;;;;;;5082818;28;20459;-76
2023/04/19 05:21:09;;;;;;;1.50;1.17;;;11.40;98.20;;;;;;5076337;28;20488;-75
2023/04/19 05:23:37;;;;;;;1.50;1.10;;;11.40;98.20;;;;;;5083447;28;20460;-74
2023/04/19 05:26:04;;;;;;;1.50;1.00;;;11.40;98.20;;;;;;5077747;28;20569;-75
2023/04/19 05:28:31;;;;;;;1.50;1.10;;;11.40;98.20;;;;;;5114459;28;20456;-74
2023/04/19 05:30:58;;;;;;;1.50;1.10;;;11.40;98.20;;;;;;5083852;28;20991;-79
2023/04/19 05:33:25;;;;;;;1.50;1.20;;;11.40;98.20;;;;;;5113805;28;20646;-77
2023/04/19 05:35:52;;;;;;;1.50;1.10;;;11.40;98.20;;;;;;5079780;28;20484;-77
2023/04/19 05:38:18;;;;;;;1.50;1.10;;;11.40;98.20;;;;;;5100104;28;20977;-77
2023/04/19 05:40:49;;;;;;;1.50;1.20;;;11.40;98.20;;;;;;5094376;28;20481;-79
2023/04/19 05:43:16;;;;;;;1.47;1.10;;;11.40;98.20;;;;;;5091835;28;20531;-80
2023/04/19 05:45:43;;;;;;;1.47;1.07;;;11.40;98.20;;;;;;5095143;28;20476;-78
2023/04/19 05:48:10;;;;;;;1.50;1.10;;;11.40;98.20;;;;;;5079089;28;20487;-78
2023/04/19 05:50:48;;;;;;;2.13;1.93;;;11.30;98.20;;;;;;5116810;28;20471;-77
2023/04/19 05:53:15;;;;;;;1.50;1.10;;;11.30;98.20;;;;;;5103171;28;20861;-79
2023/04/19 05:55:43;;;;;;;1.47;1.10;;;11.30;98.20;;;;;;5116151;28;20465;-76
2023/04/19 05:58:11;;;;;;;1.50;1.10;;;11.30;98.20;;;;;;5086748;27;20501;-79
2023/04/19 06:00:40;;;;;;;1.50;1.13;;;11.40;98.20;;;;;;5104892;28;20537;-78
2023/04/19 06:03:10;;;;;;;1.50;1.10;;;11.40;98.20;;;;;;5096877;28;20499;-76
2023/04/19 06:05:39;;;;;;;1.50;1.10;;;11.40;98.20;;;;;;5094451;28;20484;-75
2023/04/19 06:08:06;;;;;;;1.50;1.10;;;11.40;98.20;;;;;;5075009;28;20488;-75
2023/04/19 06:10:32;;;;;;;1.50;1.10;;;11.40;98.20;;;;;;5088154;28;20453;-75
2023/04/19 06:12:59;;;;;;;1.47;1.10;;;11.40;98.20;;;;;;5093441;28;20492;-75
2023/04/19 06:15:29;;;;;;;1.47;1.10;;;11.40;98.20;;;;;;5091845;28;20494;-75
2023/04/19 06:17:56;;;;;;;1.50;1.10;;;11.40;98.20;;;;;;5074730;28;20477;-74
2023/04/19 06:20:24;;;;;;;1.50;1.10;;;11.40;98.20;;;;;;5086161;28;20461;-76
2023/04/19 06:22:51;;;;;;;1.47;1.00;;;11.40;98.20;;;;;;5094520;27;20840;-75
2023/04/19 06:25:17;;;;;;;1.50;1.10;;;11.40;98.20;;;;;;5088603;28;20857;-74
2023/04/19 06:27:44;;;;;;;1.50;1.00;;;11.50;98.20;;;;;;5096321;27;20471;-75
2023/04/19 06:30:11;;;;;;;1.50;1.10;;;11.50;98.20;;;;;;5091039;28;20838;-74
2023/04/19 06:32:40;;;;;;;1.50;1.10;;;11.60;98.20;;;;;;5093726;27;20479;-74
2023/04/19 06:35:08;;;;;;;1.50;1.10;;;11.60;98.20;;;;;;5088517;28;20949;-75
2023/04/19 06:37:35;;;;;;;1.50;1.10;;;11.70;98.20;;;;;;5089748;28;20549;-74
2023/04/19 06:40:03;;;;;;;1.47;1.00;;;11.80;98.20;;;;;;5091014;28;20452;-76
2023/04/19 06:42:30;;;;;;;1.47;1.00;;;11.80;98.20;;;;;;5073456;28;20491;-77
2023/04/19 06:44:57;;;;;;;1.47;1.00;;;11.90;98.20;;;;;;5091335;28;20476;-77
2023/04/19 06:47:24;;;;;;;1.50;1.10;;;12.00;98.20;;;;;;5077245;28;20480;-76
2023/04/19 06:49:52;;;;;;;1.50;1.00;;;12.20;98.20;;;;;;5091338;28;20977;-76
2023/04/19 06:52:19;;;;;;;1.47;1.00;;;12.20;98.00;;;;;;5075899;28;20480;-77
2023/04/19 06:54:47;;;;;;;1.47;1.10;;;12.30;97.90;;;;;;5090030;28;20480;-76
2023/04/19 06:57:15;;;;;;;1.50;1.10;;;12.50;97.60;;;;;;5090380;27;20955;-77
2023/04/19 06:59:42;;;;;;;1.47;1.00;;;12.60;96.80;;;;;;5095618;28;20726;-76
2023/04/19 07:02:09;;;;;;;1.50;1.00;;;12.80;95.60;;;;;;5035422;22;20480;-81
2023/04/19 07:04:36;;;;;;;1.50;1.10;;;13.00;95.40;;;;;;4992613;28;20467;-78
2023/04/19 07:07:04;;;;;;;4.03;3.63;;;13.20;94.20;;;;;;5001675;28;20473;-79
2023/04/19 07:09:31;;;;;;;1.50;1.10;;;13.30;93.30;;;;;;4996354;28;20472;-81
2023/04/19 07:11:57;;;;;;;1.50;1.10;;;13.40;93.10;;;;;;5028808;28;20487;-77
2023/04/19 07:14:24;;;;;;;1.50;1.10;;;13.50;92.70;;;;;;5020399;28;20465;-80
2023/04/19 07:16:52;;;;;;;1.50;1.00;;;13.70;92.00;;;;;;4986895;28;20529;-78
2023/04/19 07:19:21;;;;;;;1.47;1.00;;;13.80;90.50;;;;;;4997900;28;20465;-78
2023/04/19 07:21:48;;;;;;;1.47;1.00;;;13.80;90.30;;;;;;5010206;28;20542;-77
2023/04/19 07:24:16;;;;;;;1.50;1.20;;;14.00;89.70;;;;;;5019727;28;20461;-81
2023/04/19 07:26:43;;;;;;;1.50;1.00;;;14.00;89.10;;;;;;5016560;28;20975;-78
2023/04/19 07:29:12;;;;;;;3.57;1.47;;;14.00;88.50;;;;;;5012770;28;20894;-78
2023/04/19 07:31:40;;;;;;;1.50;1.00;;;14.00;88.60;;;;;;5026142;28;20505;-77
2023/04/19 07:34:07;;;;;;;1.50;1.00;;;14.20;88.40;;;;;;5016795;28;21032;-78
2023/04/19 07:36:35;;;;;;;1.47;1.00;;;14.20;87.70;;;;;;5019428;28;20495;-77
2023/04/19 07:39:05;;;;;;;1.47;1.00;;;14.20;87.70;;;;;;5057445;28;20467;-79
2023/04/19 07:41:33;;;;;;;1.50;1.00;;;14.40;87.90;;;;;;4998656;28;20515;-82
2023/04/19 07:44:00;;;;;;;1.50;1.00;;;14.50;87.00;;;;;;4999316;28;21000;-80
2023/04/19 07:46:28;;;;;;;1.50;1.00;;;14.50;86.00;;;;;;5004497;28;21024;-78
2023/04/19 07:48:55;;;;;;;1.50;1.00;;;14.70;86.00;;;;;;5060495;28;20835;-79
2023/04/19 07:51:23;;;;;;;1.43;0.93;;;14.90;85.80;;;;;;5027476;28;20988;-78
2023/04/19 07:53:50;;;;;;;1.70;1.23;;;15.00;85.80;;;;;;5040549;28;20469;-79
2023/04/19 07:56:18;;;;;;;1.60;1.30;;;15.10;84.30;;;;;;5020199;28;20482;-78
2023/04/19 07:58:46;;;;;;;1.50;1.00;;;15.20;84.10;;;;;;5050935;28;20456;-78
2023/04/19 08:01:13;;;;;;;1.50;1.00;;;15.10;84.30;;;;;;5032635;28;20492;-79
2023/04/19 08:03:40;;;;;;;1.43;0.90;;;15.30;85.30;;;;;;5048156;28;20572;-79
2023/04/19 08:06:08;;;;;;;1.50;0.93;;;15.50;83.80;;;;;;5012633;28;20517;-77
2023/04/19 08:08:35;;;;;;;1.50;0.90;;;15.60;81.30;;;;;;5051912;28;20467;-77
2023/04/19 08:11:02;;;;;;;1.70;1.30;;;15.70;80.30;;;;;;5014161;28;20490;-80
2023/04/19 08:13:29;;;;;;;1.50;1.00;;;15.70;80.30;;;;;;5081214;28;20460;-80
2023/04/19 08:15:57;;;;;;;1.50;1.00;;;15.90;81.30;;;;;;5007616;28;20523;-80
2023/04/19 08:18:24;;;;;;;1.43;0.90;;;16.00;79.50;;;;;;5070120;28;20468;-78
2023/04/19 08:20:51;;;;;;;1.50;0.90;;;16.10;79.80;;;;;;5007350;28;20469;-77
2023/04/19 08:23:18;;;;;;;1.47;0.90;;;16.20;77.90;;;;;;5017910;28;20457;-78
2023/04/19 08:25:45;;;;;;;1.47;0.90;;;16.20;78.80;;;;;;4989946;28;20849;-76
2023/04/19 08:28:12;;;;;;;1.50;0.90;;;16.40;78.40;;;;;;5006512;28;20974;-77
2023/04/19 08:30:39;;;;;;;1.50;1.00;;;16.60;77.90;;;;;;5038044;27;20451;-78
2023/04/19 08:33:08;;;;;;;1.50;1.00;;;16.90;77.80;;;;;;5028072;28;20475;-77
2023/04/19 08:35:35;;;;;;;1.47;0.93;;;16.90;76.00;;;;;;5031374;27;20944;-76
2023/04/19 08:38:04;;;;;;;1.50;1.00;;;16.80;76.10;;;;;;5022021;28;21024;-78
2023/04/19 08:40:31;;;;;;;1.47;0.90;;;16.90;76.80;;;;;;5029631;27;20495;-77
2023/04/19 08:42:58;;;;;;;1.50;0.90;;;17.10;76.50;;;;;;5016184;28;20483;-80
2023/04/19 08:45:27;;;;;;;1.47;0.90;;;17.20;76.50;;;;;;5030808;27;20467;-78
2023/04/19 08:47:56;;;;;;;1.47;1.00;;;17.20;75.50;;;;;;5101190;27;20513;-79
2023/04/19 08:50:25;;;;;;;1.47;1.00;;;17.10;74.40;;;;;;5031341;28;20790;-79
2023/04/19 08:52:56;;;;;;;1.50;1.00;;;17.00;74.90;;;;;;5096717;27;20483;-77
2023/04/19 08:55:23;;;;;;;1.50;0.90;;;17.10;73.40;;;;;;5027537;27;20488;-77
2023/04/19 08:57:49;;;;;;;1.50;1.13;;;17.10;73.70;;;;;;5112265;27;20474;-77
2023/04/19 09:00:17;;;;;;;1.50;1.00;;;17.10;73.40;;;;;;5034111;27;20546;-78
2023/04/19 09:02:46;;;;;;;1.43;0.90;;;17.10;74.30;;;;;;5022929;27;20744;-78
2023/04/19 09:05:14;;;;;;;1.50;1.00;;;17.00;72.60;;;;;;5052331;27;20956;-78
2023/04/19 09:07:42;;;;;;;1.50;1.00;;;17.00;72.40;;;;;;5022724;27;20574;-78
2023/04/19 09:10:10;;;;;;;1.50;0.90;;;17.00;72.80;;;;;;5029281;28;20470;-79
2023/04/19 09:12:38;;;;;;;1.50;1.00;;;17.10;72.70;;;;;;5015130;28;20784;-79
2023/04/19 09:15:08;;;;;;;1.43;0.90;;;17.20;71.50;;;;;;5023975;28;20547;-78
2023/04/19 09:17:35;;;;;;;1.47;0.90;;;17.10;72.20;;;;;;5087867;27;20898;-79
2023/04/19 09:20:02;;;;;;;1.50;1.10;;;17.10;71.00;;;;;;5053364;28;20460;-76
2023/04/19 09:22:30;;;;;;;1.43;0.90;;;17.00;71.10;;;;;;5022943;28;21009;-75
2023/04/19 09:24:59;;;;;;;1.40;0.90;;;17.00;71.10;;;;;;5028802;28;20470;-78
2023/04/19 09:27:28;;;;;;;1.50;1.10;;;17.20;71.80;;;;;;5082369;27;20471;-79
2023/04/19 09:29:55;;;;;;;1.50;1.00;;;17.20;70.90;;;;;;5051821;28;20459;-79
2023/04/19 09:32:22;;;;;;;1.50;1.00;;;17.30;71.30;;;;;;5095415;27;20474;-78
2023/04/19 09:34:54;;;;;;;1.40;0.90;;;17.40;71.40;;;;;;5042219;28;20463;-74
2023/04/19 09:37:21;;;;;;;1.43;0.90;;;17.50;71.20;;;;;;5083165;27;20582;-77
2023/04/19 09:39:48;;;;;;;1.47;0.90;;;17.40;71.30;;;;;;5056280;28;20881;-79
2023/04/19 09:42:17;;;;;;;1.50;1.00;;;17.60;70.80;;;;;;5027667;28;20491;-78
2023/04/19 09:44:58;;;;;;;1.47;0.90;;;17.60;70.10;;;;;;5042216;27;20701;-79
2023/04/19 09:47:28;;;;;;;1.50;0.90;;;17.50;69.20;;;;;;5038621;27;20474;-79
2023/04/19 09:50:09;;;;;;;1.50;1.00;;;17.50;69.60;;;;;;5049724;27;20504;-78
2023/04/19 09:52:36;;;;;;;1.47;0.90;;;17.40;69.00;;;;;;5106171;27;20495;-76
2023/04/19 09:55:04;;;;;;;1.50;0.90;;;17.30;69.40;;;;;;5035904;27;20834;-77
2023/04/19 09:57:34;;;;;;;1.50;0.90;;;17.30;70.20;;;;;;5101427;27;20478;-79
2023/04/19 10:00:05;;;;;;;20.17;1.83;;;17.40;70.50;;;;;;5062678;27;20574;-76
2023/04/19 10:02:32;;;;;;;1.47;0.97;;;17.60;68.90;;;;;;5099767;27;20888;-76
2023/04/19 10:04:59;;;;;;;1.47;0.90;;;17.70;67.60;;;;;;5050136;27;20475;-78
2023/04/19 10:07:26;;;;;;;1.50;0.90;;;17.80;68.70;;;;;;5098610;27;20643;-76
2023/04/19 10:09:56;;;;;;;1.50;0.90;;;17.80;67.50;;;;;;5054610;27;20460;-78
2023/04/19 10:12:25;;;;;;;1.50;0.90;;;18.00;68.10;;;;;;5029568;27;20532;-77
2023/04/19 10:14:55;;;;;;;1.47;0.90;;;18.00;69.20;;;;;;5057428;27;20510;-77
2023/04/19 10:17:23;;;;;;;1.47;0.90;;;18.30;67.90;;;;;;5020971;28;20978;-74
2023/04/19 10:19:55;;;;;;;1.47;0.90;;;18.30;66.80;;;;;;5071362;27;20450;-77
2023/04/19 10:22:23;;;;;;;1.50;0.90;;;18.30;65.50;;;;;;5084626;27;21142;-78
2023/04/19 10:25:09;;;;;;;1.43;0.90;;;18.10;64.80;;;;;;5054989;27;20545;-77
